Time;durP1;ratioP1;P1;durP2;ratioP2;P2;SDS_P1;SDS_P2;PMS_P1;PMS_P2;Temp;Humidity;BMP_temperature;BMP_pressure;BME280_temperature;BME280_humidity;BME280_pressure;Samples;Min_cycle;Max_cycle;Signal;HPM_P1;HPM_P2
2022/03/30 00:00:24;;;;;;;;;;;;;;;10.54;68.47;98960.78;5075543;28;19970;-64
2022/03/30 00:03:08;;;;;;;;;;;;;;;10.55;68.67;98960.78;5075224;28;20016;-64
2022/03/30 00:05:52;;;;;;;;;;;;;;;10.55;68.51;98960.78;5075306;28;20032;-64
2022/03/30 00:08:36;;;;;;;;;;;;;;;10.55;68.68;98957.34;5076567;28;19993;-63
2022/03/30 00:11:20;;;;;;;;;;;;;;;10.54;68.61;98956.47;5075948;28;19927;-63
2022/03/30 00:14:03;;;;;;;;;;;;;;;10.55;68.80;98949.56;5075953;28;20020;-64
2022/03/30 00:16:48;;;;;;;;;;;;;;;10.53;68.71;98941.78;5076153;28;20429;-64
2022/03/30 00:19:32;;;;;;;;;;;;;;;10.53;68.78;98948.72;5075072;28;19943;-64
2022/03/30 00:22:16;;;;;;;;;;;;;;;10.53;68.82;98953.88;5075185;28;19966;-64
2022/03/30 00:24:59;;;;;;;;;;;;;;;10.53;68.41;98948.72;5074577;28;19970;-64
2022/03/30 00:27:46;;;;;;;;;;;;;;;10.51;68.32;98941.78;5089129;28;19943;-63
2022/03/30 00:30:31;;;;;;;;;;;;;;;10.50;68.72;98936.63;5075587;28;19966;-63
2022/03/30 00:33:14;;;;;;;;;;;;;;;10.49;68.84;98927.13;5076216;28;19967;-63
2022/03/30 00:35:58;;;;;;;;;;;;;;;10.49;68.82;98921.94;5075384;28;19965;-63
2022/03/30 00:38:42;;;;;;;;;;;;;;;10.48;68.58;98915.88;5075604;28;20396;-63
2022/03/30 00:41:27;;;;;;;;;;;;;;;10.48;68.83;98926.25;5075466;28;20311;-63
2022/03/30 00:44:12;;;;;;;;;;;;;;;10.49;68.70;98919.34;5075311;28;20349;-64
2022/03/30 00:46:56;;;;;;;;;;;;;;;10.49;68.53;98917.63;5074446;28;20011;-63
2022/03/30 00:49:41;;;;;;;;;;;;;;;10.48;68.59;98922.81;5074554;28;20019;-64
2022/03/30 00:52:25;;;;;;;;;;;;;;;10.49;68.91;98921.94;5075441;28;19927;-63
2022/03/30 00:55:09;;;;;;;;;;;;;;;10.48;68.90;98915.88;5074257;28;19927;-63
2022/03/30 00:57:54;;;;;;;;;;;;;;;10.49;68.57;98907.25;5075323;28;19969;-64
2022/03/30 01:00:38;;;;;;;;;;;;;;;10.49;68.54;98909.00;5074925;28;19927;-63
2022/03/30 01:03:22;;;;;;;;;;;;;;;10.50;68.47;98906.38;5075516;28;19943;-63
2022/03/30 01:06:06;;;;;;;;;;;;;;;10.49;68.98;98901.22;5075269;28;19994;-63
2022/03/30 01:08:50;;;;;;;;;;;;;;;10.48;68.97;98897.75;5074481;28;19927;-63
2022/03/30 01:11:34;;;;;;;;;;;;;;;10.48;68.94;98891.72;5074300;28;19987;-63
2022/03/30 01:14:18;;;;;;;;;;;;;;;10.47;68.94;98885.66;5074176;28;19967;-63
2022/03/30 01:17:02;;;;;;;;;;;;;;;10.46;68.53;98885.69;5074064;28;20066;-64
2022/03/30 01:19:46;;;;;;;;;;;;;;;10.46;69.01;98877.91;5074692;28;19928;-63
2022/03/30 01:22:30;;;;;;;;;;;;;;;10.46;68.63;98880.50;5074649;28;20394;-63
2022/03/30 01:25:14;;;;;;;;;;;;;;;10.45;69.05;98864.09;5074301;28;19975;-64
2022/03/30 01:27:59;;;;;;;;;;;;;;;10.46;68.69;98871.00;5073620;28;19974;-64
2022/03/30 01:33:46;;;;;;;;;;;;;;;10.47;68.84;98875.31;5074441;28;19931;-63
2022/03/30 01:36:30;;;;;;;;;;;;;;;10.46;68.97;98868.41;5074013;28;19965;-63
2022/03/30 01:39:15;;;;;;;;;;;;;;;10.45;68.58;98856.31;5074816;28;19997;-63
2022/03/30 01:41:58;;;;;;;;;;;;;;;10.45;68.98;98858.06;5072555;28;19981;-63
2022/03/30 01:44:42;;;;;;;;;;;;;;;10.43;68.61;98854.59;5073564;28;20299;-64
2022/03/30 01:47:26;;;;;;;;;;;;;;;10.43;69.11;98854.59;5074976;28;19928;-63
2022/03/30 01:50:11;;;;;;;;;;;;;;;10.42;69.11;98855.47;5074348;28;20351;-64
2022/03/30 01:52:55;;;;;;;;;;;;;;;10.43;68.72;98854.59;5072973;28;19966;-64
2022/03/30 01:55:39;;;;;;;;;;;;;;;10.42;68.72;98847.69;5074286;28;20291;-63
2022/03/30 01:58:23;;;;;;;;;;;;;;;10.41;68.85;98846.84;5073813;28;19974;-65
2022/03/30 02:01:09;;;;;;;;;;;;;;;10.41;68.86;98840.78;5074246;28;19926;-63
2022/03/30 02:03:53;;;;;;;;;;;;;;;10.40;68.69;98842.53;5073684;28;19927;-64
2022/03/30 02:06:37;;;;;;;;;;;;;;;10.39;68.67;98838.22;5073893;28;19928;-64
2022/03/30 02:09:21;;;;;;;;;;;;;;;10.39;68.73;98838.22;5073438;28;20449;-64
2022/03/30 02:12:06;;;;;;;;;;;;;;;10.39;69.15;98834.75;5074047;28;19947;-63
2022/03/30 02:14:53;;;;;;;;;;;;;;;10.37;69.09;98834.72;5073823;28;19928;-63
2022/03/30 02:17:37;;;;;;;;;;;;;;;10.38;69.21;98828.72;5073085;28;19927;-64
2022/03/30 02:20:21;;;;;;;;;;;;;;;10.36;68.76;98838.19;5073976;28;20406;-63
2022/03/30 02:23:05;;;;;;;;;;;;;;;10.36;69.14;98831.25;5073915;28;19939;-64
2022/03/30 02:25:49;;;;;;;;;;;;;;;10.37;68.74;98826.97;5073830;28;20399;-63
2022/03/30 02:28:33;;;;;;;;;;;;;;;10.35;68.96;98829.53;5074290;28;19967;-63
2022/03/30 02:31:18;;;;;;;;;;;;;;;10.35;68.95;98826.09;5073348;28;19942;-63
2022/03/30 02:34:02;;;;;;;;;;;;;;;10.34;69.15;98822.66;5073431;28;20024;-63
2022/03/30 02:36:46;;;;;;;;;;;;;;;10.35;68.85;98821.75;5074089;28;19931;-64
2022/03/30 02:39:30;;;;;;;;;;;;;;;10.32;68.69;98826.97;5074057;28;19928;-66
2022/03/30 02:42:14;;;;;;;;;;;;;;;10.31;68.80;98822.66;5073641;28;19927;-64
2022/03/30 02:44:57;;;;;;;;;;;;;;;10.31;69.09;98819.19;5073856;28;20279;-64
2022/03/30 02:50:46;;;;;;;;;;;;;;;10.27;68.93;98818.34;5073772;28;20299;-64
2022/03/30 02:53:30;;;;;;;;;;;;;;;10.26;68.75;98811.44;5073502;28;20027;-64
2022/03/30 02:56:15;;;;;;;;;;;;;;;10.26;69.16;98816.63;5076174;28;19966;-64
2022/03/30 02:58:59;;;;;;;;;;;;;;;10.26;69.06;98814.03;5076730;28;20004;-64
2022/03/30 03:01:43;;;;;;;;;;;;;;;10.26;69.01;98819.22;5076656;28;19926;-64
2022/03/30 03:04:28;;;;;;;;;;;;;;;10.25;68.95;98809.72;5077403;28;20061;-64
2022/03/30 03:07:14;;;;;;;;;;;;;;;10.25;68.97;98814.03;5076644;28;19923;-64
2022/03/30 03:09:59;;;;;;;;;;;;;;;10.24;69.05;98809.72;5077630;28;20383;-64
2022/03/30 03:12:42;;;;;;;;;;;;;;;10.25;69.01;98814.03;5077615;28;20390;-64
2022/03/30 03:15:26;;;;;;;;;;;;;;;10.24;68.75;98814.91;5077025;28;20376;-64
2022/03/30 03:18:10;;;;;;;;;;;;;;;10.24;69.02;98810.59;5077637;28;19927;-63
2022/03/30 03:20:54;;;;;;;;;;;;;;;10.21;68.91;98808.88;5076395;28;20395;-64
2022/03/30 03:23:39;;;;;;;;;;;;;;;10.23;68.93;98802.81;5077460;28;19930;-64
2022/03/30 03:26:23;;;;;;;;;;;;;;;10.20;69.05;98804.56;5076894;28;19927;-64
2022/03/30 03:29:06;;;;;;;;;;;;;;;10.20;69.09;98807.16;5076857;28;20058;-63
2022/03/30 03:31:51;;;;;;;;;;;;;;;10.19;69.07;98794.22;5076562;28;19928;-65
2022/03/30 03:34:34;;;;;;;;;;;;;;;10.16;68.98;98797.66;5076313;28;19943;-64
2022/03/30 03:37:18;;;;;;;;;;;;;;;10.17;69.07;98795.94;5076991;28;19926;-64
2022/03/30 03:40:03;;;;;;;;;;;;;;;10.16;68.92;98789.88;5077158;28;20448;-64
2022/03/30 03:42:48;;;;;;;;;;;;;;;10.17;68.75;98790.75;5077023;28;19927;-63
2022/03/30 03:45:33;;;;;;;;;;;;;;;10.15;68.78;98788.16;5076271;28;19927;-64
2022/03/30 03:48:17;;;;;;;;;;;;;;;10.15;68.94;98784.72;5076725;28;19927;-63
2022/03/30 03:51:00;;;;;;;;;;;;;;;10.14;69.04;98783.00;5075661;28;19980;-64
2022/03/30 03:53:44;;;;;;;;;;;;;;;10.14;68.63;98786.44;5076118;28;19927;-64
2022/03/30 03:56:28;;;;;;;;;;;;;;;10.13;68.89;98776.94;5076873;28;19955;-63
2022/03/30 03:59:12;;;;;;;;;;;;;;;10.13;68.89;98776.94;5076906;28;20351;-64
2022/03/30 04:01:56;;;;;;;;;;;;;;;10.12;68.93;98777.81;5076542;28;19930;-64
2022/03/30 04:04:40;;;;;;;;;;;;;;;10.13;68.84;98771.75;5076123;28;19931;-64
2022/03/30 04:07:24;;;;;;;;;;;;;;;10.12;68.72;98767.44;5075111;28;19928;-64
2022/03/30 04:10:09;;;;;;;;;;;;;;;10.10;68.85;98766.63;5075719;28;20279;-64
2022/03/30 04:12:53;;;;;;;;;;;;;;;10.09;68.85;98759.72;5075220;28;20058;-64
2022/03/30 04:15:40;;;;;;;;;;;;;;;10.09;69.00;98761.44;5074990;28;19928;-64
2022/03/30 04:18:24;;;;;;;;;;;;;;;10.09;68.85;98764.00;5075696;28;20314;-63
2022/03/30 04:21:08;;;;;;;;;;;;;;;10.10;68.83;98768.31;5075323;28;20016;-64
2022/03/30 04:23:52;;;;;;;;;;;;;;;10.08;68.63;98760.59;5075665;28;19966;-64
2022/03/30 04:26:37;;;;;;;;;;;;;;;10.07;69.03;98758.84;5076171;28;19982;-64
2022/03/30 04:29:21;;;;;;;;;;;;;;;10.07;68.66;98753.69;5075474;28;19927;-63
2022/03/30 04:32:05;;;;;;;;;;;;;;;10.06;68.62;98759.72;5075858;28;20021;-64
2022/03/30 04:34:49;;;;;;;;;;;;;;;10.06;68.69;98763.16;5075670;28;20020;-64
2022/03/30 04:37:32;;;;;;;;;;;;;;;10.06;68.84;98754.53;5075616;28;19970;-63
2022/03/30 04:40:16;;;;;;;;;;;;;;;10.04;68.78;98756.25;5076022;28;19927;-63
2022/03/30 04:43:00;;;;;;;;;;;;;;;10.04;68.81;98749.34;5075616;28;20012;-64
2022/03/30 04:45:44;;;;;;;;;;;;;;;10.03;68.76;98747.66;5075513;28;19928;-63
2022/03/30 04:48:28;;;;;;;;;;;;;;;10.04;68.75;98748.50;5075654;28;20330;-64
2022/03/30 04:51:12;;;;;;;;;;;;;;;10.02;68.84;98756.28;5075635;28;20291;-64
2022/03/30 04:53:56;;;;;;;;;;;;;;;10.02;68.86;98747.63;5074531;28;20017;-63
2022/03/30 04:56:40;;;;;;;;;;;;;;;10.00;68.53;98754.53;5074306;28;20364;-64
2022/03/30 04:59:24;;;;;;;;;;;;;;;10.00;68.66;98760.59;5074323;28;19928;-63
2022/03/30 05:02:08;;;;;;;;;;;;;;;10.00;68.65;98758.00;5074128;28;19967;-64
2022/03/30 05:04:52;;;;;;;;;;;;;;;9.98;68.75;98761.44;5075203;28;19963;-63
2022/03/30 05:07:37;;;;;;;;;;;;;;;9.98;68.75;98754.56;5075508;28;20449;-64
2022/03/30 05:10:21;;;;;;;;;;;;;;;10.01;68.82;98764.03;5075527;28;20014;-64
2022/03/30 05:13:05;;;;;;;;;;;;;;;9.98;68.77;98759.72;5075032;28;19927;-63
2022/03/30 05:15:49;;;;;;;;;;;;;;;9.98;68.36;98754.56;5074526;28;19928;-63
2022/03/30 05:18:33;;;;;;;;;;;;;;;9.98;68.33;98759.72;5072822;28;19970;-63
2022/03/30 05:21:17;;;;;;;;;;;;;;;9.97;68.67;98751.94;5074092;28;19927;-64
2022/03/30 05:24:01;;;;;;;;;;;;;;;9.97;68.48;98746.78;5074847;28;19975;-64
2022/03/30 05:26:45;;;;;;;;;;;;;;;9.96;68.69;98743.34;5075044;28;20406;-63
2022/03/30 05:29:30;;;;;;;;;;;;;;;9.96;68.67;98739.91;5074795;28;19927;-63
2022/03/30 05:32:14;;;;;;;;;;;;;;;9.96;68.42;98745.09;5073489;28;20005;-64
2022/03/30 05:34:58;;;;;;;;;;;;;;;9.94;68.33;98742.47;5074729;28;20406;-64
2022/03/30 05:37:45;;;;;;;;;;;;;;;9.94;68.80;98742.47;5073770;28;20402;-64
2022/03/30 05:40:29;;;;;;;;;;;;;;;9.94;68.74;98746.81;5074905;28;19981;-63
2022/03/30 05:43:13;;;;;;;;;;;;;;;9.93;68.49;98745.09;5074279;28;19928;-64
2022/03/30 05:45:57;;;;;;;;;;;;;;;9.94;68.37;98746.81;5074814;28;19947;-63
2022/03/30 05:48:41;;;;;;;;;;;;;;;9.94;68.47;98741.63;5072948;28;20020;-64
2022/03/30 05:51:25;;;;;;;;;;;;;;;9.95;68.66;98748.53;5074147;28;19927;-64
2022/03/30 05:54:09;;;;;;;;;;;;;;;9.94;68.26;98757.16;5073870;28;19931;-64
2022/03/30 05:57:02;;;;;;;;;;;;;;;9.93;68.71;98758.03;5074066;28;19928;-63
2022/03/30 05:59:46;;;;;;;;;;;;;;;9.93;68.76;98763.19;5073176;28;19983;-64
2022/03/30 06:02:29;;;;;;;;;;;;;;;9.92;68.63;98757.16;5087281;28;20386;-64
2022/03/30 06:05:14;;;;;;;;;;;;;;;9.92;68.54;98764.06;5073667;28;19928;-64
2022/03/30 06:07:59;;;;;;;;;;;;;;;9.93;68.66;98755.44;5074135;28;20023;-63
2022/03/30 06:10:43;;;;;;;;;;;;;;;9.93;68.66;98760.63;5072850;28;20402;-64
2022/03/30 06:13:27;;;;;;;;;;;;;;;9.92;68.41;98764.91;5073509;28;19927;-64
2022/03/30 06:16:13;;;;;;;;;;;;;;;9.91;68.29;98768.38;5073878;28;20299;-64
2022/03/30 06:18:57;;;;;;;;;;;;;;;9.89;68.81;98765.78;5072816;28;20045;-64
2022/03/30 06:21:42;;;;;;;;;;;;;;;9.90;68.38;98767.50;5074108;28;19927;-64
2022/03/30 06:24:26;;;;;;;;;;;;;;;9.90;68.62;98766.63;5072980;28;20019;-64
2022/03/30 06:27:10;;;;;;;;;;;;;;;9.89;68.38;98770.97;5072911;28;19928;-63
2022/03/30 06:29:54;;;;;;;;;;;;;;;9.89;68.69;98773.56;5072872;28;20020;-63
2022/03/30 06:32:38;;;;;;;;;;;;;;;9.89;68.52;98767.50;5073896;28;20344;-63
2022/03/30 06:35:22;;;;;;;;;;;;;;;9.87;68.52;98771.84;5073915;28;19931;-63
2022/03/30 06:38:06;;;;;;;;;;;;;;;9.86;68.61;98776.13;5073383;28;20390;-64
2022/03/30 06:40:50;;;;;;;;;;;;;;;9.86;68.43;98770.97;5073822;28;19927;-64
2022/03/30 06:43:34;;;;;;;;;;;;;;;9.85;68.51;98778.75;5072857;28;19982;-63
2022/03/30 06:46:19;;;;;;;;;;;;;;;9.84;68.70;98774.44;5072569;28;19927;-64
2022/03/30 06:49:02;;;;;;;;;;;;;;;9.84;68.49;98779.59;5072896;28;19962;-64
2022/03/30 06:51:46;;;;;;;;;;;;;;;9.84;68.44;98782.19;5086732;28;19931;-63
2022/03/30 06:54:30;;;;;;;;;;;;;;;9.83;68.41;98783.06;5073428;28;20009;-64
2022/03/30 06:57:14;;;;;;;;;;;;;;;9.82;68.91;98783.91;5073816;28;19928;-64
2022/03/30 06:59:59;;;;;;;;;;;;;;;9.82;68.68;98779.59;5073551;28;19967;-64
2022/03/30 07:02:42;;;;;;;;;;;;;;;9.81;68.83;98775.28;5072281;28;19931;-63
2022/03/30 07:05:26;;;;;;;;;;;;;;;9.80;68.45;98775.28;5073081;28;19930;-65
2022/03/30 07:11:13;;;;;;;;;;;;;;;9.80;68.66;98773.56;5073446;28;19926;-64
2022/03/30 07:13:58;;;;;;;;;;;;;;;9.79;68.31;98771.84;5072913;28;20399;-64
2022/03/30 07:16:42;;;;;;;;;;;;;;;9.78;68.72;98766.66;5073547;28;19928;-64
2022/03/30 07:19:26;;;;;;;;;;;;;;;9.76;68.46;98769.25;5073675;28;19974;-64
2022/03/30 07:22:10;;;;;;;;;;;;;;;9.75;68.56;98772.72;5072760;28;19974;-64
2022/03/30 07:24:54;;;;;;;;;;;;;;;9.75;68.37;98765.78;5072044;28;19966;-63
2022/03/30 07:27:39;;;;;;;;;;;;;;;9.75;68.39;98773.56;5072217;28;20291;-64
2022/03/30 07:30:23;;;;;;;;;;;;;;;9.75;68.35;98773.56;5072220;28;19928;-63
2022/03/30 07:33:07;;;;;;;;;;;;;;;9.73;68.39;98771.84;5072901;28;19931;-63
2022/03/30 07:35:51;;;;;;;;;;;;;;;9.72;68.57;98767.53;5073062;28;19927;-64
2022/03/30 07:38:35;;;;;;;;;;;;;;;9.72;68.71;98763.25;5072711;28;19927;-64
2022/03/30 07:41:18;;;;;;;;;;;;;;;9.73;68.41;98769.25;5075236;28;20061;-63
2022/03/30 07:44:05;;;;;;;;;;;;;;;9.71;68.32;98771.88;5076029;28;19928;-63
2022/03/30 07:46:49;;;;;;;;;;;;;;;9.72;68.29;98767.53;5076061;28;19927;-64
2022/03/30 07:49:33;;;;;;;;;;;;;;;9.70;68.34;98762.38;5076225;28;19927;-64
2022/03/30 07:52:18;;;;;;;;;;;;;;;9.72;68.59;98768.41;5076366;28;20292;-64
2022/03/30 07:55:02;;;;;;;;;;;;;;;9.71;68.72;98761.50;5076230;28;19927;-64
2022/03/30 07:57:46;;;;;;;;;;;;;;;9.72;68.64;98762.34;5076366;28;20504;-64
2022/03/30 08:00:30;;;;;;;;;;;;;;;9.70;68.32;98764.97;5075178;28;19977;-64
2022/03/30 08:03:14;;;;;;;;;;;;;;;9.70;68.52;98762.38;5076310;28;20329;-63
2022/03/30 08:06:00;;;;;;;;;;;;;;;9.69;68.63;98771.00;5076740;28;19966;-64
2022/03/30 08:08:44;;;;;;;;;;;;;;;9.69;68.52;98759.75;5075366;28;20302;-63
2022/03/30 08:11:28;;;;;;;;;;;;;;;9.70;68.48;98762.38;5076134;28;19966;-63
2022/03/30 08:14:12;;;;;;;;;;;;;;;9.72;68.35;98752.00;5076510;28;19927;-64
2022/03/30 08:16:56;;;;;;;;;;;;;;;9.69;68.41;98758.06;5076116;28;20311;-65
2022/03/30 08:19:40;;;;;;;;;;;;;;;9.67;68.15;98754.59;5076147;28;19927;-63
2022/03/30 08:22:28;;;;;;;;;;;;;;;9.68;68.18;98758.91;5074945;28;19943;-64
2022/03/30 08:25:12;;;;;;;;;;;;;;;9.67;68.43;98748.56;5075213;28;19970;-64
2022/03/30 08:27:56;;;;;;;;;;;;;;;9.66;68.15;98758.06;5075933;28;20385;-63
2022/03/30 08:30:40;;;;;;;;;;;;;;;9.67;68.16;98764.97;5076011;28;19927;-65
2022/03/30 08:33:26;;;;;;;;;;;;;;;9.68;68.12;98763.22;5075987;28;20031;-63
2022/03/30 08:36:11;;;;;;;;;;;;;;;9.67;68.07;98767.53;5075254;28;20015;-63
2022/03/30 08:38:54;;;;;;;;;;;;;;;9.66;67.93;98767.53;5075724;28;19927;-63
2022/03/30 08:41:42;;;;;;;;;;;;;;;9.64;67.99;98764.94;5076111;28;19943;-64
2022/03/30 08:44:26;;;;;;;;;;;;;;;9.62;67.92;98765.81;5075109;28;19931;-63
2022/03/30 08:47:11;;;;;;;;;;;;;;;9.65;68.14;98765.84;5074511;28;20370;-64
2022/03/30 08:49:55;;;;;;;;;;;;;;;9.64;67.77;98764.09;5074637;28;20326;-63
2022/03/30 08:52:39;;;;;;;;;;;;;;;9.62;68.21;98766.66;5074258;28;19974;-64
2022/03/30 08:55:23;;;;;;;;;;;;;;;9.65;68.17;98761.50;5075273;28;19928;-64
2022/03/30 08:58:07;;;;;;;;;;;;;;;9.65;68.13;98768.41;5074940;28;19982;-63
2022/03/30 09:00:52;;;;;;;;;;;;;;;9.66;68.20;98762.34;5074407;28;20275;-63
2022/03/30 09:03:36;;;;;;;;;;;;;;;9.67;68.11;98764.97;5074008;28;20058;-64
2022/03/30 09:06:49;;;;;;;;;;;;;;;9.65;67.68;98766.69;5074765;28;20069;-64
2022/03/30 09:09:38;;;;;;;;;;;;;;;9.65;67.94;98769.25;5068338;28;19927;-63
2022/03/30 09:12:25;;;;;;;;;;;;;;;9.68;67.75;98773.56;5073756;28;20010;-63
2022/03/30 09:15:09;;;;;;;;;;;;;;;9.68;67.68;98773.56;5075113;28;20027;-64
2022/03/30 09:17:58;;;;;;;;;;;;;;;9.71;67.77;98766.69;5075053;28;20283;-64
2022/03/30 09:20:44;;;;;;;;;;;;;;;9.71;67.47;98773.56;5073927;28;20017;-64
2022/03/30 09:23:29;;;;;;;;;;;;;;;9.73;67.57;98767.53;5074946;28;19980;-63
2022/03/30 09:26:13;;;;;;;;;;;;;;;9.75;67.72;98776.16;5074091;28;19927;-63
2022/03/30 09:28:57;;;;;;;;;;;;;;;9.77;67.53;98772.69;5074665;28;19927;-63
2022/03/30 09:31:42;;;;;;;;;;;;;;;9.74;67.68;98778.75;5073664;28;19927;-63
2022/03/30 09:34:30;;;;;;;;;;;;;;;9.72;67.25;98773.59;5073625;28;19947;-63
2022/03/30 09:37:14;;;;;;;;;;;;;;;9.72;67.54;98762.34;5073493;28;20338;-63
2022/03/30 09:40:08;;;;;;;;;;;;;;;9.72;67.52;98762.34;5074091;28;19986;-64
2022/03/30 09:43:08;;;;;;;;;;;;;;;9.71;67.10;98764.09;5074629;28;20022;-64
2022/03/30 09:46:04;;;;;;;;;;;;;;;9.70;67.13;98764.97;5074296;28;19943;-63
2022/03/30 09:48:49;;;;;;;;;;;;;;;9.71;67.24;98763.22;5074231;28;19973;-64
2022/03/30 09:51:35;;;;;;;;;;;;;;;9.71;67.23;98761.50;5073311;28;20440;-64
2022/03/30 09:54:35;;;;;;;;;;;;;;;9.74;67.16;98761.47;5073135;28;19927;-64
2022/03/30 09:57:19;;;;;;;;;;;;;;;9.75;67.19;98749.44;5074473;28;19959;-63
2022/03/30 10:00:05;;;;;;;;;;;;;;;9.75;67.31;98746.84;5073484;28;19978;-63
2022/03/30 10:02:54;;;;;;;;;;;;;;;9.77;67.19;98752.00;5072490;28;19928;-64
2022/03/30 10:05:39;;;;;;;;;;;;;;;9.76;66.78;98753.75;5073761;28;19927;-63
2022/03/30 10:08:23;;;;;;;;;;;;;;;9.80;67.18;98752.00;5073038;28;19969;-64
2022/03/30 10:11:09;;;;;;;;;;;;;;;9.81;67.03;98753.72;5074266;28;20006;-63
2022/03/30 10:14:00;;;;;;;;;;;;;;;9.80;66.97;98757.19;5073840;28;19984;-63
2022/03/30 10:16:44;;;;;;;;;;;;;;;9.82;67.11;98751.13;5073081;28;19928;-64
2022/03/30 10:19:28;;;;;;;;;;;;;;;9.85;67.32;98748.53;5073317;28;20339;-63
2022/03/30 10:22:19;;;;;;;;;;;;;;;9.85;67.05;98738.19;5074177;28;19927;-63
2022/03/30 10:25:06;;;;;;;;;;;;;;;9.87;66.77;98736.47;5073891;28;19928;-63
2022/03/30 10:27:54;;;;;;;;;;;;;;;9.86;66.64;98733.88;5074209;28;19927;-63
2022/03/30 10:30:43;;;;;;;;;;;;;;;9.83;66.41;98731.31;5073284;28;19974;-63
2022/03/30 10:33:34;;;;;;;;;;;;;;;9.84;66.59;98725.25;5073275;28;20398;-63
2022/03/30 10:36:23;;;;;;;;;;;;;;;9.86;66.61;98719.22;5073631;28;20341;-64
2022/03/30 10:39:16;;;;;;;;;;;;;;;9.85;66.80;98717.47;5074005;28;19970;-64
2022/03/30 10:42:06;;;;;;;;;;;;;;;9.87;66.73;98720.09;5072725;28;20390;-63
2022/03/30 10:44:58;;;;;;;;;;;;;;;9.88;66.71;98707.13;5072822;28;20403;-63
2022/03/30 10:48:02;;;;;;;;;;;;;;;9.87;66.22;98702.81;5072866;28;19973;-63
2022/03/30 10:50:49;;;;;;;;;;;;;;;9.89;66.10;98700.22;5072989;28;19931;-64
2022/03/30 10:53:33;;;;;;;;;;;;;;;9.89;66.15;98695.91;5073847;28;19966;-64
2022/03/30 10:56:18;;;;;;;;;;;;;;;9.89;66.66;98700.22;5073586;28;19927;-63
2022/03/30 10:59:01;;;;;;;;;;;;;;;9.91;66.52;98690.72;5073457;28;19927;-63
2022/03/30 11:01:48;;;;;;;;;;;;;;;9.91;66.13;98698.50;5073079;28;19972;-63
2022/03/30 11:04:32;;;;;;;;;;;;;;;9.93;66.43;98689.00;5072806;28;19943;-63
2022/03/30 11:07:22;;;;;;;;;;;;;;;9.94;66.56;98689.88;5072260;28;19962;-63
2022/03/30 11:10:22;;;;;;;;;;;;;;;9.95;66.49;98686.41;5073527;28;19982;-64
2022/03/30 11:13:06;;;;;;;;;;;;;;;9.96;66.31;98691.59;5073403;28;19927;-64
2022/03/30 11:15:59;;;;;;;;;;;;;;;9.96;66.57;98690.72;5073529;28;19973;-64
2022/03/30 11:18:53;;;;;;;;;;;;;;;9.99;66.59;98682.94;5077478;28;19928;-63
2022/03/30 11:21:37;;;;;;;;;;;;;;;9.98;66.17;98684.69;5076333;28;20421;-63
2022/03/30 11:24:25;;;;;;;;;;;;;;;9.97;66.25;98672.59;5076051;28;19985;-63
2022/03/30 11:27:08;;;;;;;;;;;;;;;10.00;66.43;98661.38;5076647;28;19927;-64
2022/03/30 11:29:54;;;;;;;;;;;;;;;10.01;66.51;98665.66;5076973;28;19927;-63
2022/03/30 11:32:43;;;;;;;;;;;;;;;10.03;66.26;98675.19;5075547;28;20039;-64
2022/03/30 11:35:39;;;;;;;;;;;;;;;10.03;66.17;98659.66;5075889;28;19932;-63
2022/03/30 11:38:32;;;;;;;;;;;;;;;10.02;66.43;98667.41;5075648;28;19929;-64
2022/03/30 11:41:18;;;;;;;;;;;;;;;10.03;66.27;98661.34;5075763;28;19927;-64
2022/03/30 11:47:06;;;;;;;;;;;;;;;10.06;65.75;98657.03;5076525;28;19927;-64
2022/03/30 11:49:50;;;;;;;;;;;;;;;10.06;66.32;98649.25;5075812;28;20306;-64
2022/03/30 11:52:34;;;;;;;;;;;;;;;10.05;66.51;98639.75;5076504;28;20459;-63
2022/03/30 11:55:18;;;;;;;;;;;;;;;10.06;66.30;98646.66;5077010;28;19927;-64
2022/03/30 11:58:03;;;;;;;;;;;;;;;10.06;66.32;98641.50;5076503;28;20390;-63
2022/03/30 12:00:46;;;;;;;;;;;;;;;10.06;65.89;98645.81;5076080;28;20044;-63
2022/03/30 12:03:30;;;;;;;;;;;;;;;10.09;65.80;98643.22;5076644;28;19927;-64
2022/03/30 12:06:14;;;;;;;;;;;;;;;10.10;65.97;98637.19;5076763;28;20326;-64
2022/03/30 12:08:59;;;;;;;;;;;;;;;10.11;66.16;98643.22;5075910;28;19927;-63
2022/03/30 12:11:42;;;;;;;;;;;;;;;10.11;66.00;98645.78;5075368;28;19926;-64
2022/03/30 12:14:27;;;;;;;;;;;;;;;10.11;66.13;98644.09;5075807;28;19932;-63
2022/03/30 12:17:11;;;;;;;;;;;;;;;10.11;66.20;98635.44;5075260;28;19928;-64
2022/03/30 12:19:55;;;;;;;;;;;;;;;10.12;65.76;98639.75;5074685;28;19943;-64
2022/03/30 12:22:39;;;;;;;;;;;;;;;10.11;66.04;98638.03;5075691;28;20310;-63
2022/03/30 12:25:23;;;;;;;;;;;;;;;10.10;65.92;98637.19;5076323;28;20391;-63
2022/03/30 12:28:07;;;;;;;;;;;;;;;10.13;65.94;98631.13;5075658;28;19931;-64
2022/03/30 12:30:51;;;;;;;;;;;;;;;10.11;65.92;98625.97;5075767;28;19970;-63
2022/03/30 12:33:42;;;;;;;;;;;;;;;10.11;65.75;98620.78;5075754;28;20002;-64
2022/03/30 12:36:26;;;;;;;;;;;;;;;10.09;65.47;98622.50;5075671;28;19928;-64
2022/03/30 12:39:14;;;;;;;;;;;;;;;10.09;65.60;98622.50;5075137;28;20023;-63
2022/03/30 12:41:59;;;;;;;;;;;;;;;10.07;65.72;98613.88;5075802;28;19927;-64
2022/03/30 12:44:47;;;;;;;;;;;;;;;10.07;65.78;98624.25;5074626;28;20370;-64
2022/03/30 12:47:33;;;;;;;;;;;;;;;10.06;65.85;98613.00;5075548;28;20411;-64
2022/03/30 12:50:23;;;;;;;;;;;;;;;10.06;65.50;98607.84;5075250;28;19973;-64
2022/03/30 12:53:17;;;;;;;;;;;;;;;10.06;65.63;98605.25;5074712;28;19974;-63
2022/03/30 12:56:31;;;;;;;;;;;;;;;10.09;65.56;98596.63;5074824;28;19966;-63
2022/03/30 12:59:19;;;;;;;;;;;;;;;10.11;65.87;98594.03;5079186;28;20491;-63
2022/03/30 13:02:18;;;;;;;;;;;;;;;10.13;65.39;98582.78;5074595;28;19928;-63
2022/03/30 13:05:01;;;;;;;;;;;;;;;10.12;65.31;98578.47;5075033;28;19928;-63
2022/03/30 13:07:50;;;;;;;;;;;;;;;10.14;65.73;98573.28;5074251;28;20486;-63
2022/03/30 13:10:50;;;;;;;;;;;;;;;10.15;65.19;98575.88;5074539;28;20020;-63
2022/03/30 13:13:35;;;;;;;;;;;;;;;10.12;65.39;98570.69;5074341;28;19926;-64
2022/03/30 13:16:19;;;;;;;;;;;;;;;10.13;65.22;98572.41;5074691;28;19943;-64
2022/03/30 13:19:04;;;;;;;;;;;;;;;10.13;65.60;98561.22;5073967;28;19927;-63
2022/03/30 13:21:53;;;;;;;;;;;;;;;10.14;65.65;98558.59;5074153;28;19970;-64
2022/03/30 13:24:39;;;;;;;;;;;;;;;10.17;65.17;98557.75;5073870;28;19932;-63
2022/03/30 13:27:25;;;;;;;;;;;;;;;10.16;64.81;98553.44;5073748;28;20311;-63
2022/03/30 13:30:09;;;;;;;;;;;;;;;10.13;65.43;98546.53;5073906;28;20429;-63
2022/03/30 13:32:53;;;;;;;;;;;;;;;10.13;65.31;98543.94;5073467;28;20020;-63
2022/03/30 13:35:38;;;;;;;;;;;;;;;10.16;64.83;98540.50;5073743;28;20298;-64
2022/03/30 13:38:24;;;;;;;;;;;;;;;10.15;64.91;98539.63;5073908;28;19931;-63
2022/03/30 13:41:10;;;;;;;;;;;;;;;10.15;65.16;98526.69;5074013;28;20444;-64
2022/03/30 13:43:54;;;;;;;;;;;;;;;10.13;65.31;98520.66;5073332;28;19928;-64
2022/03/30 13:46:38;;;;;;;;;;;;;;;10.15;65.25;98529.25;5073301;28;19973;-64
2022/03/30 13:49:41;;;;;;;;;;;;;;;10.15;65.21;98515.47;5074361;28;19931;-64
2022/03/30 13:52:25;;;;;;;;;;;;;;;10.15;64.95;98507.72;5073065;28;20413;-63
2022/03/30 13:55:09;;;;;;;;;;;;;;;10.15;64.94;98512.88;5074344;28;19931;-64
2022/03/30 13:57:54;;;;;;;;;;;;;;;10.14;65.04;98516.34;5073760;28;19967;-63
2022/03/30 14:00:38;;;;;;;;;;;;;;;10.13;65.25;98514.63;5074603;28;19927;-63
2022/03/30 14:03:22;;;;;;;;;;;;;;;10.12;64.96;98513.75;5074798;28;19935;-63
2022/03/30 14:06:08;;;;;;;;;;;;;;;10.14;65.37;98511.16;5073939;28;19966;-64
2022/03/30 14:08:52;;;;;;;;;;;;;;;10.13;65.30;98501.69;5073446;28;20399;-63
2022/03/30 14:11:38;;;;;;;;;;;;;;;10.13;65.29;98504.28;5073860;28;19966;-64
2022/03/30 14:14:23;;;;;;;;;;;;;;;10.12;65.30;98502.53;5072922;28;19947;-63
2022/03/30 14:17:07;;;;;;;;;;;;;;;10.12;65.30;98497.38;5073869;28;19931;-63
2022/03/30 14:19:52;;;;;;;;;;;;;;;10.12;65.35;98492.19;5074014;28;19926;-64
2022/03/30 14:22:36;;;;;;;;;;;;;;;10.13;65.17;98493.91;5073703;28;19973;-64
2022/03/30 14:25:20;;;;;;;;;;;;;;;10.14;65.42;98490.47;5073815;28;20066;-64
2022/03/30 14:28:05;;;;;;;;;;;;;;;10.15;65.60;98489.59;5073341;28;20070;-63
2022/03/30 14:30:49;;;;;;;;;;;;;;;10.14;65.26;98487.88;5073861;28;19928;-64
2022/03/30 14:33:33;;;;;;;;;;;;;;;10.14;65.37;98480.09;5073136;28;19943;-64
2022/03/30 14:36:16;;;;;;;;;;;;;;;10.15;65.13;98484.41;5074246;28;20407;-63